createdAt,value
2023-05-07T00:00:27.519Z,98367.52
2023-05-07T00:03:50.712Z,98369.02
2023-05-07T00:06:53.929Z,98369.11
2023-05-07T00:09:56.921Z,98363.84
2023-05-07T00:13:00.255Z,98365.51
2023-05-07T00:16:04.271Z,98371.50
2023-05-07T00:19:07.288Z,98368.05
2023-05-07T00:22:10.366Z,98374.98
2023-05-07T00:25:13.453Z,98370.16
2023-05-07T00:28:16.437Z,98367.89
2023-05-07T00:31:19.456Z,98365.38
2023-05-07T00:34:23.366Z,98361.60
2023-05-07T00:37:26.480Z,98361.14
2023-05-07T00:40:29.855Z,98368.31
2023-05-07T00:43:33.228Z,98370.90
2023-05-07T00:46:36.643Z,98373.20
2023-05-07T00:49:43.634Z,98381.00
2023-05-07T00:52:46.711Z,98386.19
2023-05-07T00:55:50.058Z,98387.31
2023-05-07T00:58:53.502Z,98387.23
2023-05-07T01:01:56.545Z,98383.69
2023-05-07T01:05:01.846Z,98387.09
2023-05-07T01:08:06.309Z,98389.22
2023-05-07T01:11:10.628Z,98387.58
2023-05-07T01:14:13.910Z,98386.70
2023-05-07T01:17:17.809Z,98386.33
2023-05-07T01:20:23.644Z,98391.37
2023-05-07T01:23:28.927Z,98389.64
2023-05-07T01:26:32.115Z,98393.18
2023-05-07T01:29:35.456Z,98395.30
2023-05-07T01:33:01.146Z,98397.90
2023-05-07T01:36:07.457Z,98400.66
2023-05-07T01:39:11.750Z,98402.17
2023-05-07T01:42:14.731Z,98396.42
2023-05-07T01:45:17.970Z,98397.68
2023-05-07T01:48:21.392Z,98400.91
2023-05-07T01:51:24.559Z,98403.74
2023-05-07T01:54:31.873Z,98402.10
2023-05-07T01:57:35.350Z,98399.98
2023-05-07T02:00:38.574Z,98401.45
2023-05-07T02:03:41.857Z,98398.71
2023-05-07T02:06:49.339Z,98394.55
2023-05-07T02:09:53.297Z,98393.13
2023-05-07T02:12:56.560Z,98397.07
2023-05-07T02:15:59.709Z,98396.05
2023-05-07T02:19:03.854Z,98399.13
2023-05-07T02:22:06.974Z,98398.26
2023-05-07T02:25:10.032Z,98400.31
2023-05-07T02:28:13.346Z,98400.94
2023-05-07T02:31:26.689Z,98403.14
2023-05-07T02:34:30.091Z,98402.60
2023-05-07T02:37:33.210Z,98403.07
2023-05-07T02:40:39.750Z,98405.98
2023-05-07T02:43:42.832Z,98406.08
2023-05-07T02:46:46.310Z,98405.76
2023-05-07T02:49:49.545Z,98410.55
2023-05-07T02:52:52.591Z,98414.17
2023-05-07T02:56:00.440Z,98414.48
2023-05-07T02:59:03.492Z,98414.64
2023-05-07T03:02:09.568Z,98414.17
2023-05-07T03:05:13.658Z,98418.81
2023-05-07T03:08:16.655Z,98422.82
2023-05-07T03:11:19.767Z,98424.94
2023-05-07T03:14:22.876Z,98428.95
2023-05-07T03:17:26.064Z,98428.19
2023-05-07T03:20:29.327Z,98429.90
2023-05-07T03:23:32.379Z,98432.48
2023-05-07T03:26:35.372Z,98440.65
2023-05-07T03:29:39.080Z,98444.27
2023-05-07T03:32:42.462Z,98448.27
2023-05-07T03:35:47.515Z,98447.16
2023-05-07T03:38:53.554Z,98446.54
2023-05-07T03:41:59.328Z,98454.55
2023-05-07T03:45:02.697Z,98459.98
2023-05-07T03:48:06.457Z,98459.36
2023-05-07T03:51:10.002Z,98460.53
2023-05-07T03:54:13.290Z,98466.03
2023-05-07T03:57:19.752Z,98461.48
2023-05-07T04:00:23.573Z,98466.19
2023-05-07T04:03:26.718Z,98471.92
2023-05-07T04:06:30.807Z,98475.61
2023-05-07T04:09:34.795Z,98480.80
2023-05-07T04:12:38.745Z,98480.48
2023-05-07T04:15:42.841Z,98485.67
2023-05-07T04:18:47.331Z,98490.06
2023-05-07T04:21:50.635Z,98491.17
2023-05-07T04:24:53.856Z,98495.02
2023-05-07T04:27:58.057Z,98498.15
2023-05-07T04:31:02.790Z,98495.64
2023-05-07T04:34:07.227Z,98499.17
2023-05-07T04:37:10.598Z,98508.45
2023-05-07T04:40:14.457Z,98516.52
2023-05-07T04:43:18.155Z,98519.13
2023-05-07T04:46:25.762Z,98522.66
2023-05-07T04:49:29.943Z,98528.79
2023-05-07T04:52:33.876Z,98540.17
2023-05-07T04:55:36.914Z,98538.51
2023-05-07T04:58:40.513Z,98543.78
2023-05-07T05:01:44.552Z,98547.63
2023-05-07T05:04:47.826Z,98554.30
2023-05-07T05:07:52.688Z,98556.11
2023-05-07T05:10:56.316Z,98563.71
2023-05-07T05:14:01.692Z,98566.62
2023-05-07T05:17:04.929Z,98563.14
2023-05-07T05:20:08.591Z,98568.79
2023-05-07T05:23:12.065Z,98571.28
2023-05-07T05:26:15.741Z,98571.96
2023-05-07T05:29:18.824Z,98583.66
2023-05-07T05:32:22.073Z,98585.14
2023-05-07T05:35:25.637Z,98591.17
2023-05-07T05:38:28.881Z,98596.04
2023-05-07T05:41:32.799Z,98598.54
2023-05-07T05:44:36.107Z,98604.81
2023-05-07T05:47:40.232Z,98606.30
2023-05-07T05:50:43.771Z,98605.88
2023-05-07T05:53:47.091Z,98609.33
2023-05-07T05:56:50.977Z,98614.29
2023-05-07T05:59:54.595Z,98617.09
2023-05-07T06:02:57.732Z,98625.17
2023-05-07T06:06:02.128Z,98623.84
2023-05-07T06:09:05.634Z,98624.55
2023-05-07T06:12:13.807Z,98631.31
2023-05-07T06:15:17.150Z,98635.70
2023-05-07T06:18:20.533Z,98630.84
2023-05-07T06:21:23.753Z,98632.66
2023-05-07T06:24:26.811Z,98635.73
2023-05-07T06:27:29.923Z,98631.09
2023-05-07T06:30:33.433Z,98631.58
2023-05-07T06:33:36.594Z,98634.57
2023-05-07T06:36:40.094Z,98639.84
2023-05-07T06:39:52.136Z,98642.60
2023-05-07T06:42:55.391Z,98640.65
2023-05-07T06:46:03.986Z,98643.88
2023-05-07T06:49:07.073Z,98646.55
2023-05-07T06:52:10.111Z,98652.01
2023-05-07T06:55:13.462Z,98654.06
2023-05-07T06:58:16.567Z,98652.96
2023-05-07T07:01:19.854Z,98660.36
2023-05-07T07:04:24.972Z,98658.17
2023-05-07T07:07:32.824Z,98664.44
2023-05-07T07:10:36.052Z,98663.18
2023-05-07T07:13:41.152Z,98670.32
2023-05-07T07:16:44.901Z,98673.55
2023-05-07T07:19:47.923Z,98673.70
2023-05-07T07:22:51.210Z,98676.52
2023-05-07T07:25:54.423Z,98679.41
2023-05-07T07:28:57.678Z,98682.77
2023-05-07T07:32:01.381Z,98689.14
2023-05-07T07:35:05.768Z,98693.77
2023-05-07T07:38:09.162Z,98701.23
2023-05-07T07:41:12.341Z,98701.13
2023-05-07T07:44:16.584Z,98703.64
2023-05-07T07:47:22.811Z,98706.70
2023-05-07T07:53:35.904Z,98705.29
2023-05-07T07:56:39.192Z,98706.94
2023-05-07T07:59:44.457Z,98713.38
2023-05-07T08:02:48.527Z,98715.09
2023-05-07T08:05:56.581Z,98719.66
2023-05-07T08:08:59.947Z,98720.52
2023-05-07T08:12:03.215Z,98724.56
2023-05-07T08:15:07.919Z,98724.43
2023-05-07T08:18:11.113Z,98719.30
2023-05-07T08:21:14.846Z,98722.27
2023-05-07T08:24:18.970Z,98718.90
2023-05-07T08:27:22.114Z,98721.61
2023-05-07T08:30:25.228Z,98726.58
2023-05-07T08:33:28.907Z,98728.42
2023-05-07T08:36:33.606Z,98731.96
2023-05-07T08:39:36.750Z,98739.95
2023-05-07T08:42:41.624Z,98745.23
2023-05-07T08:45:47.154Z,98754.84
2023-05-07T08:48:52.686Z,98760.35
2023-05-07T08:51:56.862Z,98762.37
2023-05-07T08:55:03.265Z,98759.52
2023-05-07T08:58:06.913Z,98766.40
2023-05-07T09:01:14.748Z,98769.84
2023-05-07T09:04:18.528Z,98773.66
2023-05-07T09:07:23.493Z,98776.79
2023-05-07T09:10:27.639Z,98776.55
2023-05-07T09:13:30.751Z,98781.42
2023-05-07T09:16:34.401Z,98782.27
2023-05-07T09:19:38.090Z,98783.52
2023-05-07T09:22:41.339Z,98787.35
2023-05-07T09:25:47.786Z,98789.85
2023-05-07T09:29:02.282Z,98794.55
2023-05-07T09:32:09.803Z,98799.02
2023-05-07T09:42:54.904Z,98800.71
2023-05-07T09:45:59.456Z,98805.77
2023-05-07T09:49:02.563Z,98804.19
2023-05-07T09:52:09.106Z,98807.60
2023-05-07T09:55:13.536Z,98809.15
2023-05-07T09:58:16.632Z,98813.64
2023-05-07T10:01:22.442Z,98812.73
2023-05-07T10:04:26.277Z,98812.37
2023-05-07T10:07:29.254Z,98818.20
2023-05-07T10:10:36.992Z,98819.63
2023-05-07T10:13:40.539Z,98824.05
2023-05-07T10:16:45.090Z,98823.98
2023-05-07T10:19:56.764Z,98836.33
2023-05-07T10:23:00.323Z,98837.98
2023-05-07T10:26:09.015Z,98840.71
2023-05-07T10:29:27.044Z,98839.84
2023-05-07T10:32:47.979Z,98844.02
2023-05-07T10:36:01.064Z,98842.20
2023-05-07T10:39:03.572Z,98847.69
2023-05-07T10:42:12.638Z,98854.27
2023-05-07T10:45:17.096Z,98856.13
2023-05-07T10:48:30.159Z,98855.08
2023-05-07T10:51:40.614Z,98856.38
2023-05-07T10:55:25.463Z,98856.38
2023-05-07T10:58:53.462Z,98855.13
2023-05-07T11:02:06.626Z,98859.69
2023-05-07T11:05:29.114Z,98856.79
2023-05-07T11:08:52.817Z,98860.64
2023-05-07T11:11:56.725Z,98864.46
2023-05-07T11:15:06.977Z,98868.86
2023-05-07T11:18:11.628Z,98868.63
2023-05-07T11:21:32.896Z,98870.27
2023-05-07T11:24:42.934Z,98869.83
2023-05-07T11:27:45.909Z,98874.52
2023-05-07T11:30:47.968Z,98879.71
2023-05-07T11:33:52.860Z,98881.52
2023-05-07T11:36:56.212Z,98887.06
2023-05-07T11:40:07.235Z,98892.35
2023-05-07T11:43:12.234Z,98894.52
2023-05-07T11:46:14.804Z,98893.66
2023-05-07T11:49:17.600Z,98892.08
2023-05-07T11:52:21.032Z,98881.63
2023-05-07T11:55:25.286Z,98877.04
2023-05-07T11:58:27.089Z,98876.52
2023-05-07T12:01:28.973Z,98879.14
2023-05-07T12:04:30.972Z,98882.77
2023-05-07T12:07:34.678Z,98886.23
2023-05-07T12:10:41.586Z,98889.92
2023-05-07T12:13:44.035Z,98892.42
2023-05-07T12:16:46.739Z,98899.50
2023-05-07T12:19:48.885Z,98891.93
2023-05-07T12:22:52.394Z,98899.39
2023-05-07T12:25:54.184Z,98902.04
2023-05-07T12:28:58.122Z,98904.70
2023-05-07T12:32:00.206Z,98903.60
2023-05-07T12:35:06.766Z,98902.60
2023-05-07T12:38:17.572Z,98906.17
2023-05-07T12:41:19.385Z,98909.70
2023-05-07T12:44:24.895Z,98913.40
2023-05-07T12:47:26.681Z,98912.99
2023-05-07T12:50:33.127Z,98913.38
2023-05-07T12:53:40.642Z,98911.39
2023-05-07T12:56:42.404Z,98915.09
2023-05-07T12:59:44.140Z,98918.61
2023-05-07T13:02:46.092Z,98919.17
2023-05-07T13:05:47.850Z,98920.92
2023-05-07T13:08:49.794Z,98918.60
2023-05-07T13:11:51.582Z,98917.92
2023-05-07T13:14:53.223Z,98921.17
2023-05-07T13:17:55.720Z,98918.60
2023-05-07T13:20:58.131Z,98919.16
2023-05-07T13:24:00.289Z,98922.23
2023-05-07T13:27:02.034Z,98918.52
2023-05-07T13:30:05.932Z,98919.44
2023-05-07T13:33:07.920Z,98922.94
2023-05-07T13:36:09.877Z,98927.78
2023-05-07T13:39:11.635Z,98928.27
2023-05-07T13:42:13.453Z,98931.48
2023-05-07T13:45:15.587Z,98935.77
2023-05-07T13:48:17.427Z,98935.33
2023-05-07T13:51:19.158Z,98933.02
2023-05-07T13:54:21.202Z,98936.73
2023-05-07T13:57:22.977Z,98935.52
2023-05-07T14:00:26.536Z,98929.66
2023-05-07T14:03:28.438Z,98936.25
2023-05-07T14:06:30.205Z,98938.03
2023-05-07T14:09:31.911Z,98942.42
2023-05-07T14:12:33.927Z,98940.84
2023-05-07T14:15:35.716Z,98947.38
2023-05-07T14:18:38.902Z,98945.81
2023-05-07T14:21:41.637Z,98947.00
2023-05-07T14:24:43.970Z,98950.02
2023-05-07T14:27:47.070Z,98955.36
2023-05-07T14:30:48.790Z,98953.48
2023-05-07T14:33:50.965Z,98955.94
2023-05-07T14:36:52.698Z,98961.34
2023-05-07T14:39:54.432Z,98961.66
2023-05-07T14:42:57.608Z,98967.23
2023-05-07T14:45:59.312Z,98973.98
2023-05-07T14:49:02.977Z,98974.48
2023-05-07T14:52:06.512Z,98983.73
2023-05-07T14:55:08.760Z,98990.52
2023-05-07T14:58:11.573Z,98992.17
2023-05-07T15:01:13.957Z,98992.05
2023-05-07T15:04:15.860Z,98994.02
2023-05-07T15:07:17.861Z,98988.16
2023-05-07T15:10:19.761Z,98990.95
2023-05-07T15:13:22.078Z,98993.27
2023-05-07T15:16:23.804Z,98994.17
2023-05-07T15:19:29.232Z,99003.39
2023-05-07T15:22:31.188Z,99007.21
2023-05-07T15:25:34.093Z,99007.04
2023-05-07T15:28:36.004Z,99007.74
2023-05-07T15:31:39.121Z,99008.60
2023-05-07T15:34:41.627Z,99006.06
2023-05-07T15:37:44.091Z,99010.64
2023-05-07T15:40:45.873Z,99010.33
2023-05-07T15:43:50.999Z,99004.05
2023-05-07T15:46:54.555Z,99003.05
2023-05-07T15:49:56.287Z,99002.10
2023-05-07T15:52:58.400Z,99003.83
2023-05-07T15:56:00.506Z,99007.44
2023-05-07T15:59:04.517Z,99009.70
2023-05-07T16:02:07.689Z,99011.17
2023-05-07T16:05:10.618Z,99011.34
2023-05-07T16:08:12.904Z,99009.96
2023-05-07T16:11:15.036Z,99009.69
2023-05-07T16:14:16.767Z,99014.45
2023-05-07T16:17:18.678Z,99022.56
2023-05-07T16:20:21.265Z,99022.45
2023-05-07T16:23:23.002Z,99020.70
2023-05-07T16:26:24.771Z,99019.34
2023-05-07T16:29:26.476Z,99018.77
2023-05-07T16:32:29.557Z,99017.20
2023-05-07T16:35:31.318Z,99020.40
2023-05-07T16:38:33.665Z,99019.45
2023-05-07T16:41:35.795Z,99015.39
2023-05-07T16:44:37.772Z,99024.95
2023-05-07T16:47:39.610Z,99030.46
2023-05-07T16:50:43.834Z,99031.71
2023-05-07T16:53:45.525Z,99031.03
2023-05-07T16:56:47.670Z,99025.13
2023-05-07T16:59:49.336Z,99028.23
2023-05-07T17:02:51.360Z,99031.99
2023-05-07T17:05:53.289Z,99034.48
2023-05-07T17:08:55.164Z,99039.89
2023-05-07T17:11:57.083Z,99037.20
2023-05-07T17:14:58.956Z,99037.38
2023-05-07T17:18:01.248Z,99048.83
2023-05-07T17:21:03.018Z,99050.22
2023-05-07T17:24:05.610Z,99051.11
2023-05-07T17:27:07.480Z,99051.10
2023-05-07T17:30:09.903Z,99057.45
2023-05-07T17:33:20.755Z,99058.83
2023-05-07T17:36:24.078Z,99059.45
2023-05-07T17:39:25.849Z,99062.35
2023-05-07T17:42:27.521Z,99065.00
2023-05-07T17:45:29.273Z,99066.77
2023-05-07T17:48:30.950Z,99070.36
2023-05-07T17:51:45.926Z,99071.20
2023-05-07T17:54:54.322Z,99071.36
2023-05-07T17:57:56.041Z,99068.41
2023-05-07T18:00:57.823Z,99067.75
2023-05-07T18:03:59.722Z,99069.93
2023-05-07T18:07:01.434Z,99073.08
2023-05-07T18:10:03.463Z,99073.56
2023-05-07T18:13:05.290Z,99075.73
2023-05-07T18:16:07.235Z,99080.55
2023-05-07T18:19:09.008Z,99084.98
2023-05-07T18:22:10.761Z,99091.56
2023-05-07T18:25:12.516Z,99094.38
2023-05-07T18:28:14.934Z,99099.52
2023-05-07T18:31:16.555Z,99093.83
2023-05-07T18:34:18.341Z,99095.45
2023-05-07T18:37:20.622Z,99096.85
2023-05-07T18:40:35.785Z,99092.05
2023-05-07T18:44:06.217Z,99095.61
2023-05-07T18:47:28.726Z,99096.38
2023-05-07T18:50:30.609Z,99099.16
2023-05-07T18:53:32.260Z,99099.21
2023-05-07T18:56:33.921Z,99096.21
2023-05-07T18:59:35.625Z,99099.51
2023-05-07T19:02:38.107Z,99103.84
2023-05-07T19:05:40.559Z,99108.45
2023-05-07T19:08:42.328Z,99110.11
2023-05-07T19:11:44.101Z,99109.55
2023-05-07T19:14:46.093Z,99109.45
2023-05-07T19:17:47.885Z,99110.70
2023-05-07T19:20:52.171Z,99111.80
2023-05-07T19:23:56.855Z,99115.33
2023-05-07T19:26:58.608Z,99121.05
2023-05-07T19:30:00.292Z,99121.11
2023-05-07T19:33:02.459Z,99124.48
2023-05-07T19:36:06.869Z,99121.23
2023-05-07T19:39:11.719Z,99124.70
2023-05-07T19:42:13.560Z,99132.67
2023-05-07T19:45:15.680Z,99132.49
2023-05-07T19:48:17.377Z,99136.88
2023-05-07T19:51:19.136Z,99135.15
2023-05-07T19:54:21.098Z,99136.16
2023-05-07T19:57:22.856Z,99134.73
2023-05-07T20:00:27.307Z,99133.70
2023-05-07T20:03:30.659Z,99133.36
2023-05-07T20:06:32.582Z,99137.98
2023-05-07T20:09:34.263Z,99146.48
2023-05-07T20:12:36.592Z,99147.02
2023-05-07T20:15:39.117Z,99143.92
2023-05-07T20:18:40.985Z,99145.63
2023-05-07T20:21:42.703Z,99143.12
2023-05-07T20:24:44.364Z,99140.81
2023-05-07T20:27:46.070Z,99138.34
2023-05-07T20:30:47.853Z,99144.91
2023-05-07T20:33:49.714Z,99145.05
2023-05-07T20:36:51.601Z,99150.75
2023-05-07T20:39:53.285Z,99159.36
2023-05-07T20:42:55.005Z,99160.46
2023-05-07T20:46:03.570Z,99161.08
2023-05-07T20:49:05.503Z,99166.94
2023-05-07T20:52:10.803Z,99171.30
2023-05-07T20:55:13.295Z,99169.98
2023-05-07T20:58:15.078Z,99172.44
2023-05-07T21:01:16.954Z,99173.14
2023-05-07T21:04:18.868Z,99173.13
2023-05-07T21:07:20.609Z,99176.97
2023-05-07T21:10:22.262Z,99180.44
2023-05-07T21:13:24.061Z,99175.92
2023-05-07T21:16:25.799Z,99184.80
2023-05-07T21:19:27.472Z,99182.59
2023-05-07T21:22:29.820Z,99181.42
2023-05-07T21:25:31.452Z,99175.81
2023-05-07T21:28:33.202Z,99175.97
2023-05-07T21:31:35.033Z,99174.49
2023-05-07T21:34:36.857Z,99176.77
2023-05-07T21:37:38.495Z,99176.05
2023-05-07T21:40:40.288Z,99179.11
2023-05-07T21:43:41.938Z,99173.89
2023-05-07T21:46:43.774Z,99178.88
2023-05-07T21:49:45.865Z,99186.77
2023-05-07T21:52:48.320Z,99190.27
2023-05-07T21:55:49.855Z,99194.24
2023-05-07T21:58:51.497Z,99192.94
2023-05-07T22:01:53.233Z,99197.42
2023-05-07T22:04:55.171Z,99201.55
2023-05-07T22:07:56.896Z,99202.27
2023-05-07T22:10:58.648Z,99206.07
2023-05-07T22:14:00.392Z,99202.62
2023-05-07T22:17:02.131Z,99205.36
2023-05-07T22:20:04.166Z,99203.58
2023-05-07T22:23:05.828Z,99203.70
2023-05-07T22:26:13.955Z,99202.69
2023-05-07T22:29:15.712Z,99204.03
2023-05-07T22:32:17.381Z,99202.11
2023-05-07T22:35:19.207Z,99200.86
2023-05-07T22:38:20.881Z,99195.01
2023-05-07T22:41:23.282Z,99194.88
2023-05-07T22:44:25.101Z,99195.97
2023-05-07T22:47:32.739Z,99193.31
2023-05-07T22:50:38.234Z,99187.74
2023-05-07T22:53:40.473Z,99187.05
2023-05-07T22:56:42.086Z,99185.54
2023-05-07T22:59:43.737Z,99182.78
2023-05-07T23:02:45.987Z,99184.14
2023-05-07T23:05:47.793Z,99179.44
2023-05-07T23:08:49.559Z,99177.23
2023-05-07T23:11:51.261Z,99179.77
2023-05-07T23:14:52.897Z,99180.46
2023-05-07T23:17:54.587Z,99180.84
2023-05-07T23:20:56.308Z,99182.30
2023-05-07T23:23:58.013Z,99184.79
2023-05-07T23:26:59.751Z,99182.02
2023-05-07T23:30:01.680Z,99181.27
2023-05-07T23:33:03.533Z,99176.38
2023-05-07T23:36:06.512Z,99178.64
2023-05-07T23:39:08.497Z,99174.91
2023-05-07T23:42:10.292Z,99177.47
2023-05-07T23:45:12.047Z,99171.48
2023-05-07T23:48:14.396Z,99168.42
2023-05-07T23:51:16.049Z,99170.61
2023-05-07T23:54:17.890Z,99167.73
2023-05-07T23:57:19.564Z,99169.00
